Time;durP1;ratioP1;P1;durP2;ratioP2;P2;SDS_P1;SDS_P2;PMS_P1;PMS_P2;Temp;Humidity;BMP_temperature;BMP_pressure;BME280_temperature;BME280_humidity;BME280_pressure;Samples;Min_cycle;Max_cycle;Signal;HPM_P1;HPM_P2
2022/02/10 00:22:14;;;;;;;30.23;22.20;;;10.00;86.70;;;;;;5099812;28;20024;-86
2022/02/10 00:25:32;;;;;;;24.67;17.77;;;10.00;87.40;;;;;;5089472;28;20059;-89
2022/02/10 00:35:59;;;;;;;25.90;19.02;;;10.00;86.80;;;;;;5100888;28;20093;-89
2022/02/10 00:38:30;;;;;;;26.90;19.02;;;10.00;86.80;;;;;;5099354;28;20369;-89
2022/02/10 00:40:56;;;;;;;24.42;17.67;;;10.00;86.70;;;;;;5087956;28;20031;-88
2022/02/10 00:43:21;;;;;;;22.65;16.95;;;10.00;86.70;;;;;;5105112;28;20099;-89
2022/02/10 00:45:47;;;;;;;22.63;16.67;;;10.00;86.70;;;;;;5104637;28;20020;-89
2022/02/10 00:48:14;;;;;;;22.42;16.70;;;10.00;86.60;;;;;;5103549;28;20022;-90
2022/02/10 00:50:42;;;;;;;20.35;14.57;;;10.00;86.60;;;;;;5103806;28;20127;-90
2022/02/10 00:53:14;;;;;;;20.35;14.20;;;10.10;86.60;;;;;;5103882;28;20384;-89
2022/02/10 00:55:42;;;;;;;;;;;10.20;86.50;;;;;;5094515;28;20032;-88
2022/02/10 00:58:11;;;;;;;21.75;16.20;;;10.20;86.30;;;;;;5100549;28;19904;-91
2022/02/10 01:30:21;;;;;;;15.23;11.48;;;10.30;85.90;;;;;;5085875;28;20020;-90
2022/02/10 01:32:51;;;;;;;16.15;12.23;;;10.30;85.90;;;;;;5098197;28;20031;-90
2022/02/10 01:35:21;;;;;;;16.55;12.70;;;10.30;85.80;;;;;;5096457;28;20036;-90
2022/02/10 01:37:47;;;;;;;17.63;12.25;;;10.30;85.80;;;;;;5098613;28;20103;-86
2022/02/10 02:04:17;;;;;;;14.75;10.45;;;10.30;85.40;;;;;;5095759;28;20142;-89
2022/02/10 02:06:45;;;;;;;15.23;10.73;;;10.30;85.40;;;;;;5094968;28;20021;-87
2022/02/10 02:09:14;;;;;;;17.77;11.80;;;10.30;85.30;;;;;;5094240;28;20047;-90
2022/02/10 02:11:41;;;;;;;14.50;10.48;;;10.30;85.30;;;;;;5101149;28;20458;-90
2022/02/10 02:14:08;;;;;;;12.45;9.18;;;10.40;85.30;;;;;;5088460;28;20035;-88
2022/02/10 02:16:35;;;;;;;10.82;8.43;;;10.40;85.30;;;;;;5098769;28;20066;-89
2022/02/10 02:19:01;;;;;;;12.27;9.00;;;10.30;85.20;;;;;;5092816;28;20024;-89
2022/02/10 02:21:28;;;;;;;13.38;10.23;;;10.40;85.30;;;;;;5094520;28;20021;-87
2022/02/10 02:23:54;;;;;;;11.65;8.30;;;10.40;85.20;;;;;;5082525;28;20122;-87
2022/02/10 02:26:24;;;;;;;11.32;8.40;;;10.30;85.10;;;;;;5090359;28;20104;-87
2022/02/10 02:28:54;;;;;;;14.55;10.60;;;10.30;85.00;;;;;;5087701;28;20012;-87
2022/02/10 02:31:30;;;;;;;13.10;9.68;;;10.30;85.00;;;;;;5107057;28;20035;-87
2022/02/10 02:34:37;;;;;;;13.00;9.73;;;10.30;85.00;;;;;;5085544;28;20054;-90
2022/02/10 03:06:33;;;;;;;11.43;8.90;;;10.20;84.50;;;;;;5107711;28;20032;-94
2022/02/10 03:09:04;;;;;;;9.73;7.68;;;10.20;84.50;;;;;;5095335;28;20462;-94
2022/02/10 03:11:30;;;;;;;8.82;7.40;;;10.20;84.60;;;;;;5094910;28;20035;-91
2022/02/10 03:14:04;;;;;;;11.60;8.85;;;10.20;84.50;;;;;;5107909;28;20040;-91
2022/02/10 03:16:54;;;;;;;10.68;8.15;;;10.20;84.40;;;;;;5114260;28;20050;-91
2022/02/10 04:00:29;;;;;;;14.15;10.52;;;10.20;84.20;;;;;;5101322;28;20039;-88
2022/02/10 04:08:47;;;;;;;10.98;7.47;;;10.20;84.10;;;;;;5093552;28;20100;-87
2022/02/10 04:11:34;;;;;;;13.27;9.85;;;10.20;84.10;;;;;;5100491;28;20024;-86
2022/02/10 04:14:14;;;;;;;13.18;9.95;;;10.20;84.10;;;;;;5091125;28;20478;-88
2022/02/10 04:16:52;;;;;;;11.27;8.55;;;10.20;84.00;;;;;;5109382;28;20486;-87
2022/02/10 04:22:13;;;;;;;12.98;9.52;;;10.10;84.00;;;;;;5108107;28;20033;-88
2022/02/10 04:27:20;;;;;;;12.48;9.63;;;10.10;84.00;;;;;;5092964;28;20371;-89
2022/02/10 04:42:28;;;;;;;11.30;8.57;;;10.10;84.00;;;;;;5098149;28;20073;-88
2022/02/10 05:05:28;;;;;;;13.95;11.23;;;10.00;84.00;;;;;;5096010;28;20107;-89
2022/02/10 05:08:11;;;;;;;12.93;10.18;;;10.00;84.00;;;;;;5094378;28;20486;-90
2022/02/10 05:21:32;;;;;;;13.68;10.80;;;10.00;84.10;;;;;;5073051;28;20153;-88
2022/02/10 05:34:41;;;;;;;12.80;10.15;;;10.00;84.00;;;;;;5086941;28;20475;-88
2022/02/10 05:37:07;;;;;;;16.45;10.88;;;10.00;84.00;;;;;;5084334;28;20543;-85
2022/02/10 05:39:36;;;;;;;14.82;10.98;;;9.90;84.00;;;;;;5098806;28;20020;-90
2022/02/10 05:44:52;;;;;;;13.73;11.18;;;9.90;84.30;;;;;;5097068;28;20063;-87
2022/02/10 05:58:10;;;;;;;15.70;10.90;;;9.90;84.30;;;;;;5079482;28;20028;-75
2022/02/10 06:52:42;;;;;;;17.40;11.63;;;9.80;84.80;;;;;;5074796;28;20034;-75
2022/02/10 07:08:53;;;;;;;14.18;9.65;;;9.80;85.20;;;;;;5085298;28;20442;-75
2022/02/10 07:17:10;;;;;;;15.65;11.02;;;9.80;85.30;;;;;;5091230;28;20032;-75
2022/02/10 07:47:18;;;;;;;2.85;2.20;;;9.50;85.50;;;;;;5084906;28;20027;-75
2022/02/10 07:50:11;;;;;;;1.77;1.50;;;9.50;85.40;;;;;;5081979;28;20081;-76
2022/02/10 07:58:38;;;;;;;1.25;1.10;;;9.30;85.50;;;;;;5075982;28;20081;-75
2022/02/10 09:09:26;;;;;;;3.70;1.05;;;9.10;84.70;;;;;;5081892;28;20537;-77
2022/02/10 09:47:28;;;;;;;3.75;1.35;;;9.20;84.10;;;;;;5086641;28;20071;-76
2022/02/10 10:02:10;;;;;;;1.75;1.10;;;9.30;83.60;;;;;;5082544;28;20034;-76
2022/02/10 10:04:44;;;;;;;3.47;1.30;;;9.40;83.70;;;;;;5085831;28;20394;-76
2022/02/10 10:07:51;;;;;;;2.72;1.30;;;9.40;83.70;;;;;;5081883;28;20381;-77
2022/02/10 10:15:49;;;;;;;3.08;1.23;;;9.40;83.40;;;;;;5088167;28;20051;-84
2022/02/10 10:52:23;;;;;;;2.80;1.30;;;9.80;82.60;;;;;;5118595;27;20089;-76
2022/02/10 10:55:04;;;;;;;2.10;1.42;;;9.80;82.50;;;;;;5123701;27;20055;-75
2022/02/10 10:57:34;;;;;;;2.45;1.40;;;9.80;82.40;;;;;;5117177;27;20516;-76
2022/02/10 11:41:28;;;;;;;4.13;2.10;;;10.20;80.40;;;;;;5104443;27;20024;-76
2022/02/10 11:44:14;;;;;;;7.75;3.08;;;10.30;80.30;;;;;;5108017;27;20032;-77
2022/02/10 12:36:30;;;;;;;4.28;2.55;;;10.30;79.30;;;;;;5102125;27;20157;-75
2022/02/10 12:40:09;;;;;;;4.82;2.70;;;10.30;79.20;;;;;;5100192;27;20043;-76
2022/02/10 13:34:51;;;;;;;4.38;1.60;;;10.30;75.60;;;;;;5111267;27;20038;-78
2022/02/10 14:20:57;;;;;;;2.80;1.35;;;10.00;73.80;;;;;;5099664;28;20487;-76
2022/02/10 14:28:21;;;;;;;5.50;1.70;;;10.00;73.90;;;;;;5106736;27;20393;-76
2022/02/10 14:30:47;;;;;;;3.58;1.40;;;10.00;73.80;;;;;;5108619;27;20036;-76
2022/02/10 14:33:14;;;;;;;3.10;1.17;;;9.90;73.70;;;;;;5102141;28;20028;-79
2022/02/10 14:35:54;;;;;;;4.45;1.38;;;9.90;73.70;;;;;;5099589;28;20076;-78
2022/02/10 14:38:44;;;;;;;3.60;1.25;;;9.90;73.40;;;;;;5100710;28;20024;-78
2022/02/10 14:42:20;;;;;;;2.88;1.20;;;9.90;73.50;;;;;;5089255;28;20386;-77
2022/02/10 15:21:58;;;;;;;5.47;1.55;;;9.90;72.30;;;;;;5101112;27;20038;-79
2022/02/10 15:52:17;;;;;;;3.97;1.60;;;9.60;72.30;;;;;;5103007;28;20093;-78
2022/02/10 15:55:44;;;;;;;4.70;1.40;;;9.60;72.30;;;;;;5113679;27;20035;-78
2022/02/10 16:11:35;;;;;;;3.00;1.25;;;9.40;71.80;;;;;;5103465;27;20031;-78
2022/02/10 16:17:05;;;;;;;3.38;1.20;;;9.20;71.20;;;;;;5087564;28;20069;-76
2022/02/10 16:19:33;;;;;;;4.43;1.15;;;9.20;71.00;;;;;;5080692;28;20024;-78
2022/02/10 16:24:45;;;;;;;4.00;1.40;;;9.20;70.60;;;;;;5104172;28;20031;-80
2022/02/10 16:27:14;;;;;;;2.75;1.13;;;9.20;70.80;;;;;;5104850;27;20034;-79
2022/02/10 16:29:40;;;;;;;5.57;1.42;;;9.20;70.80;;;;;;5103478;27;20024;-78
2022/02/10 16:32:08;;;;;;;4.05;1.27;;;9.20;70.80;;;;;;5102192;27;20024;-78
2022/02/10 16:34:34;;;;;;;3.03;1.10;;;9.20;70.90;;;;;;5101338;28;20020;-78
2022/02/10 16:37:00;;;;;;;1.65;1.00;;;9.20;70.80;;;;;;5106034;27;20034;-88
2022/02/10 16:39:26;;;;;;;4.07;1.30;;;9.20;70.60;;;;;;5101782;27;20039;-79
2022/02/10 16:41:52;;;;;;;3.25;1.13;;;9.10;70.50;;;;;;5105699;27;20027;-78
2022/02/10 16:44:18;;;;;;;3.38;1.23;;;9.10;70.50;;;;;;5103780;27;20028;-78
2022/02/10 16:46:44;;;;;;;2.55;1.23;;;9.10;70.40;;;;;;5103663;27;20020;-78
2022/02/10 16:49:10;;;;;;;3.05;1.02;;;9.00;70.10;;;;;;5105905;27;20023;-77
2022/02/10 16:51:38;;;;;;;3.88;1.27;;;9.00;70.60;;;;;;5103295;27;20042;-79
2022/02/10 16:54:10;;;;;;;1.95;1.10;;;9.00;70.20;;;;;;5104352;27;20412;-78
2022/02/10 16:56:56;;;;;;;1.58;1.10;;;9.00;70.30;;;;;;5098832;27;20032;-78
2022/02/10 17:25:38;;;;;;;5.28;1.17;;;8.90;70.20;;;;;;5097712;28;20084;-78
2022/02/10 17:28:06;;;;;;;6.05;1.52;;;8.80;70.30;;;;;;5110464;27;20107;-78
2022/02/10 17:44:04;;;;;;;4.00;1.30;;;8.70;70.50;;;;;;5124021;27;20046;-80
2022/02/10 17:54:29;;;;;;;6.47;1.60;;;8.70;70.50;;;;;;5115463;27;20027;-77
2022/02/10 17:56:55;;;;;;;3.50;1.40;;;8.60;70.40;;;;;;5108499;27;20042;-77
2022/02/10 17:59:22;;;;;;;4.40;1.38;;;8.60;70.50;;;;;;5103724;27;20012;-77
2022/02/10 18:01:48;;;;;;;4.25;1.63;;;8.60;71.10;;;;;;5098269;27;20049;-77
2022/02/10 18:04:16;;;;;;;4.57;1.65;;;8.60;70.50;;;;;;5113440;27;20377;-78
2022/02/10 18:06:44;;;;;;;2.17;1.33;;;8.50;70.30;;;;;;5100318;27;20027;-80
2022/02/10 18:14:36;;;;;;;3.13;1.40;;;8.60;70.50;;;;;;5114506;28;20114;-78
2022/02/10 18:20:05;;;;;;;3.55;1.10;;;8.50;70.60;;;;;;5105278;28;20042;-78
2022/02/10 18:30:27;;;;;;;3.50;1.55;;;8.40;70.80;;;;;;5101813;28;20104;-78
2022/02/10 18:37:46;;;;;;;3.05;1.30;;;8.50;70.80;;;;;;5102011;28;20042;-77
2022/02/10 19:10:44;;;;;;;4.05;1.60;;;8.30;71.50;;;;;;5109274;27;20219;-76
2022/02/10 19:13:10;;;;;;;7.10;1.58;;;8.40;71.50;;;;;;5098957;27;20119;-76
2022/02/10 19:15:36;;;;;;;4.60;1.88;;;8.40;71.60;;;;;;5098675;27;20141;-76
2022/02/10 19:18:05;;;;;;;3.88;1.70;;;8.30;71.50;;;;;;5099299;27;20465;-77
2022/02/10 19:20:32;;;;;;;4.03;1.58;;;8.30;71.60;;;;;;5103476;27;20474;-77
2022/02/10 19:22:58;;;;;;;3.20;1.40;;;8.30;71.50;;;;;;5108484;27;20024;-78
2022/02/10 19:25:25;;;;;;;5.82;1.60;;;8.30;71.60;;;;;;5104575;27;20034;-77
2022/02/10 19:27:50;;;;;;;3.67;1.60;;;8.30;71.60;;;;;;5104384;27;20024;-78
2022/02/10 19:30:22;;;;;;;5.85;1.70;;;8.30;71.60;;;;;;5103940;28;20028;-78
2022/02/10 19:33:00;;;;;;;2.80;1.40;;;8.30;71.60;;;;;;5101703;28;20039;-80
2022/02/10 19:35:28;;;;;;;3.17;1.40;;;8.30;71.70;;;;;;5103588;27;20028;-78
2022/02/10 19:37:59;;;;;;;4.47;1.90;;;8.20;71.70;;;;;;5098632;27;20035;-78
2022/02/10 19:40:27;;;;;;;5.18;1.80;;;8.20;71.70;;;;;;5101639;27;20044;-77
2022/02/10 19:42:55;;;;;;;5.57;1.90;;;8.20;71.80;;;;;;5105274;27;20435;-78
2022/02/10 19:45:21;;;;;;;5.10;1.60;;;8.10;71.70;;;;;;5098029;27;20039;-77
2022/02/10 19:47:48;;;;;;;3.95;1.83;;;8.00;71.80;;;;;;5102978;27;20027;-78
2022/02/10 19:50:16;;;;;;;4.35;1.73;;;8.00;71.80;;;;;;5093830;27;20031;-76
2022/02/10 19:52:48;;;;;;;4.18;1.70;;;8.00;71.80;;;;;;5106813;27;20028;-78
2022/02/10 19:57:45;;;;;;;3.25;1.70;;;7.90;71.80;;;;;;5497489;22;20058;-78
2022/02/10 20:00:17;;;;;;;5.72;1.88;;;7.90;71.90;;;;;;4999304;28;20051;-78
2022/02/10 20:02:43;;;;;;;3.55;1.73;;;8.00;72.00;;;;;;5003899;28;20049;-78
2022/02/10 20:05:09;;;;;;;3.83;1.65;;;7.90;72.00;;;;;;4998077;28;20034;-77
2022/02/10 20:07:38;;;;;;;5.85;1.70;;;7.90;72.00;;;;;;5004479;28;20546;-78
2022/02/10 20:10:08;;;;;;;2.05;1.25;;;8.00;72.10;;;;;;5004896;28;20038;-77
2022/02/10 20:12:34;;;;;;;4.30;1.48;;;7.90;72.00;;;;;;5006144;28;20026;-78
2022/02/10 20:15:00;;;;;;;5.53;1.70;;;7.90;72.00;;;;;;5008194;28;20025;-77
2022/02/10 20:17:26;;;;;;;3.35;1.52;;;7.90;72.00;;;;;;4999637;28;20034;-78
2022/02/10 20:19:52;;;;;;;5.68;2.03;;;7.90;72.60;;;;;;5016835;28;20029;-79
2022/02/10 20:22:17;;;;;;;5.25;1.85;;;7.90;72.00;;;;;;5008913;28;20041;-78
2022/02/10 20:24:43;;;;;;;5.43;2.08;;;7.90;72.10;;;;;;5008001;28;20036;-77
2022/02/10 20:27:09;;;;;;;3.50;1.45;;;7.80;72.10;;;;;;5007954;28;20650;-77
2022/02/10 20:29:35;;;;;;;3.53;1.55;;;7.80;72.20;;;;;;5011368;28;20053;-77
2022/02/10 20:32:01;;;;;;;4.95;1.73;;;7.80;72.20;;;;;;5008889;28;20030;-77
2022/02/10 20:34:29;;;;;;;6.10;1.77;;;7.90;72.30;;;;;;5007589;28;20026;-77
2022/02/10 20:36:56;;;;;;;3.65;1.48;;;7.80;72.20;;;;;;5010367;28;20375;-77
2022/02/10 20:39:26;;;;;;;4.90;1.70;;;7.80;72.30;;;;;;5011532;28;20049;-77
2022/02/10 20:41:54;;;;;;;4.82;1.90;;;7.80;72.30;;;;;;5009730;28;20018;-78
2022/02/10 20:44:20;;;;;;;8.68;2.72;;;7.80;72.40;;;;;;5005552;28;20024;-78
2022/02/10 20:46:50;;;;;;;4.72;1.90;;;7.80;72.30;;;;;;5006028;28;20065;-78
2022/02/10 20:49:17;;;;;;;5.82;2.30;;;7.80;72.40;;;;;;5007731;28;20022;-78
2022/02/10 20:51:44;;;;;;;5.88;2.35;;;7.70;72.50;;;;;;5008655;28;20026;-78
2022/02/10 20:54:10;;;;;;;5.22;2.00;;;7.70;72.50;;;;;;5008901;28;20025;-78
2022/02/10 20:56:36;;;;;;;4.75;2.03;;;7.70;72.60;;;;;;5007237;28;20037;-78
2022/02/10 20:59:09;;;;;;;4.30;2.00;;;7.70;72.60;;;;;;5022550;28;20037;-79
2022/02/10 21:01:35;;;;;;;3.85;1.70;;;7.70;72.70;;;;;;5007502;28;20030;-79
2022/02/10 21:04:02;;;;;;;6.43;1.80;;;7.70;72.80;;;;;;5011050;28;20564;-79
2022/02/10 21:09:10;;;;;;;6.43;2.03;;;7.70;72.80;;;;;;5001301;28;20046;-77
2022/02/10 21:11:36;;;;;;;5.03;1.80;;;7.70;72.70;;;;;;5002915;28;20528;-75
2022/02/10 21:14:02;;;;;;;4.65;1.80;;;7.60;72.70;;;;;;5011137;28;20121;-75
2022/02/10 21:16:29;;;;;;;6.32;2.22;;;7.60;72.80;;;;;;5008651;28;20026;-78
2022/02/10 21:18:54;;;;;;;5.55;2.30;;;7.60;72.90;;;;;;5009376;28;20174;-76
2022/02/10 21:21:20;;;;;;;3.50;1.80;;;7.60;73.60;;;;;;5013757;28;20053;-77
2022/02/10 21:24:00;;;;;;;7.35;2.50;;;7.50;73.00;;;;;;5009983;28;20439;-77
2022/02/10 21:26:32;;;;;;;8.13;2.13;;;7.50;73.00;;;;;;5004121;28;20387;-77
2022/02/10 21:29:01;;;;;;;5.45;2.10;;;7.40;72.90;;;;;;5009597;28;20037;-77
2022/02/10 21:31:27;;;;;;;5.88;2.50;;;7.40;73.00;;;;;;5015459;28;20018;-77
2022/02/10 21:34:18;;;;;;;4.68;1.70;;;7.40;73.10;;;;;;5007670;28;20041;-76
2022/02/10 21:39:22;;;;;;;7.47;2.17;;;7.30;73.20;;;;;;5008379;28;20034;-76
2022/02/10 21:55:40;;;;;;;5.80;2.47;;;7.20;73.50;;;;;;5007123;28;20113;-75
2022/02/10 21:59:04;;;;;;;4.65;2.80;;;7.20;73.60;;;;;;5004383;28;20041;-77
2022/02/10 22:08:08;;;;;;;6.22;2.97;;;7.20;74.00;;;;;;5008969;28;20120;-77
2022/02/10 22:17:44;;;;;;;4.30;2.20;;;7.10;74.60;;;;;;5004799;28;20057;-77
2022/02/10 22:20:32;;;;;;;5.28;2.70;;;7.00;74.80;;;;;;5003752;28;20077;-76
2022/02/10 22:23:05;;;;;;;6.45;2.42;;;7.00;75.00;;;;;;5004517;28;20069;-76
2022/02/10 22:25:31;;;;;;;4.40;2.50;;;6.90;75.20;;;;;;5002398;28;20907;-75
2022/02/10 22:28:04;;;;;;;5.30;2.33;;;6.90;75.30;;;;;;5001184;28;20077;-76
2022/02/10 22:30:43;;;;;;;7.32;2.50;;;6.90;75.50;;;;;;5007205;28;20061;-77
2022/02/10 22:33:24;;;;;;;5.03;2.35;;;6.90;75.60;;;;;;5003733;28;20018;-76
2022/02/10 22:35:50;;;;;;;6.43;2.53;;;6.90;75.70;;;;;;5004338;28;20112;-76
2022/02/10 22:38:20;;;;;;;4.13;2.30;;;6.90;75.90;;;;;;5000011;28;20037;-77
2022/02/10 22:41:19;;;;;;;6.90;2.65;;;6.80;76.00;;;;;;5004543;28;20044;-78
2022/02/10 22:43:40;;;;;;;6.53;2.97;;;6.90;76.10;;;;;;5003252;28;20142;-78
2022/02/10 22:46:07;;;;;;;5.38;2.42;;;6.70;76.30;;;;;;5005141;28;20037;-77
2022/02/10 22:48:33;;;;;;;5.40;2.70;;;6.70;76.40;;;;;;4999061;28;20670;-76
2022/02/10 22:50:59;;;;;;;5.82;2.60;;;6.70;77.10;;;;;;5007270;28;20058;-77
2022/02/10 22:53:25;;;;;;;7.40;2.60;;;6.70;76.60;;;;;;5005188;28;20028;-77
2022/02/10 22:55:51;;;;;;;5.78;2.50;;;6.70;76.60;;;;;;5006669;28;20042;-78
2022/02/10 22:58:17;;;;;;;6.75;2.67;;;6.70;76.70;;;;;;5007651;28;20052;-77
2022/02/10 23:00:47;;;;;;;3.83;1.90;;;6.70;76.70;;;;;;5010206;28;20442;-78
2022/02/10 23:03:18;;;;;;;4.78;2.45;;;6.60;76.70;;;;;;4993997;28;20545;-78
2022/02/10 23:05:44;;;;;;;5.53;2.50;;;6.60;77.00;;;;;;5009586;28;20023;-77
2022/02/10 23:08:10;;;;;;;6.70;2.17;;;6.60;77.00;;;;;;5006997;28;20373;-77
2022/02/10 23:10:44;;;;;;;5.50;2.60;;;6.50;77.00;;;;;;5008766;28;20032;-77
2022/02/10 23:13:12;;;;;;;7.05;2.45;;;6.50;77.20;;;;;;5009662;28;20022;-77
2022/02/10 23:15:38;;;;;;;4.72;2.20;;;6.50;77.30;;;;;;5008300;28;20073;-77
2022/02/10 23:18:10;;;;;;;5.80;2.70;;;6.50;77.40;;;;;;5008478;28;20122;-77
2022/02/10 23:20:37;;;;;;;7.03;2.30;;;6.40;77.50;;;;;;4990402;28;20573;-77
2022/02/10 23:23:05;;;;;;;7.85;2.83;;;6.40;77.60;;;;;;5007387;28;20064;-77
2022/02/10 23:25:32;;;;;;;6.18;2.58;;;6.40;77.70;;;;;;5011806;28;20041;-77
2022/02/10 23:27:59;;;;;;;6.53;2.53;;;6.40;77.80;;;;;;5012648;28;20091;-78
2022/02/10 23:30:25;;;;;;;7.72;3.80;;;6.30;77.80;;;;;;5013091;28;20484;-77
2022/02/10 23:32:55;;;;;;;6.28;2.50;;;6.40;77.90;;;;;;5011488;28;20046;-78
2022/02/10 23:36:10;;;;;;;4.65;2.28;;;6.30;77.90;;;;;;5015460;28;20021;-77
2022/02/10 23:38:09;;;;;;;6.15;2.20;;;6.30;78.00;;;;;;5023198;28;20033;-79
2022/02/10 23:40:45;;;;;;;5.47;2.10;;;6.30;77.90;;;;;;5026575;28;20029;-77
2022/02/10 23:43:10;;;;;;;5.13;2.40;;;6.30;77.90;;;;;;5012435;28;20034;-77
2022/02/10 23:45:40;;;;;;;5.40;2.30;;;6.30;78.00;;;;;;5013052;28;20369;-77
2022/02/10 23:48:06;;;;;;;4.07;2.17;;;6.30;78.00;;;;;;5011081;28;20595;-75
2022/02/10 23:50:34;;;;;;;6.43;2.53;;;6.30;78.10;;;;;;5012290;28;20033;-76
2022/02/10 23:52:59;;;;;;;6.10;2.15;;;6.30;78.10;;;;;;5010992;28;20476;-76
2022/02/10 23:55:33;;;;;;;6.20;2.42;;;6.30;78.00;;;;;;5012146;28;20018;-76
